Forest Ranch, CA (95942)

5:06 PM PDT on October 01, 2014 (GMT -0700)
Cohasset - Cohasset Loop | Change Station
CLOSE
Current Station
Personal Weather Station
Location: Cohasset, CA
Elevation: 3100 ft
Nearby Weather Stations

Elev 3100 ft 39.94 °N, 121.73 °W | Updated 18 seconds ago

Clear
Clear
72.7 °F
Feels Like 76 °F
N
3.5
Wind Variable Wind from NW
Gusts 3.5 mph

Today
High -- | Low -- °F
--% Chance of Precip.
Yesterday
High -- | Low -- °F
Precip. -- in
7:02 AM 6:48 PM
First Quarter, 52% visible
Pressure 29.84 in
Visibility 80.0 miles
Clouds Few 8000 ft
Heat Index 76 °F
Dew Point 36 °F
Humidity 26%
Rainfall 0.00 in
Snow Depth 0 in , 1 in , 0 in
UV 1 out of 12
Pollen 5.90 out of 12
Air Quality Not available.
Flu Activity Not available.
METAR KCIC 302353Z 30012KT 80SM FEW080 28/07 A2984

More Conditions Fewer Conditions

Pressure 29.84 in
Visibility 80.0 miles
Clouds Few 8000 ft
Heat Index 76 °F
Dew Point 36 °F
Humidity 26%
Rainfall 0.00 in
Snow Depth 0 in , 1 in , 0 in
UV 1 out of 12
Pollen 5.90 out of 12
Air Quality Not available.
Flu Activity Not available.
METAR KCIC 302353Z 30012KT 80SM FEW080 28/07 A2984

More Conditions Fewer Conditions

10-Day Weather Forecast

Almanac

Astronomy

Oct. 01, 2014 Rise Set
Actual Time 7:02 AM PDT 6:48 PM PDT
Civil Twilight 6:35 AM PDT 7:15 PM PDT
Nautical Twilight 6:04 AM PDT 7:46 PM PDT
Astronomical Twilight 5:32 AM PDT 8:18 PM PDT
Moon 2:08 PM PDT (10/1) No Moon Set
Length of Visible Light 12h 39m
Length of Day
11h 45m
Tomorrow will be 2m 38s shorter.
First Quarter, 52% of the Moon is Illuminated
Today
First Quarter
Oct 8
Full
Oct 15
Last Quarter
Oct 23
New
Oct 30
First Quarter

Today's Extremes

State Highs State Lows

Community

WunderPhotos

Upload Photos

1,758,094 photos uploaded!

WunderBlogs® & News

Nearby

Snow Depth

Station Depth Elevation
Burnside Lake 0 in 8139 ft
CSS Lab 1 in 6900 ft
Adin Mountain 0 in 6200 ft
Spratt Creek 0 in 6200 ft

Earthquake Activity

City Distance Mag. Time & Date
Lakeview, Oregon 160 miles 3.0 1:55 PM PDT
2014-10-01
Lakeview, Oregon 160 miles 3.2 12:54 PM PDT
2014-10-01
Lakeview, Oregon 157 miles 2.5 10:36 AM PDT
2014-10-01
Lakeview, Oregon 159 miles 2.7 8:41 AM PDT
2014-10-01
Minimum magnitude displayed is 2.5.

Coastal Water Temperatures

Place Temperature
No Stations Reporting

Nearby Weather Stations